createdAt,value
2023-02-19T00:00:05.567Z,100941.12
2023-02-19T00:02:42.445Z,100933.15
2023-02-19T00:05:10.799Z,100933.16
2023-02-19T00:07:39.413Z,100930.95
2023-02-19T00:10:08.815Z,100931.50
2023-02-19T00:12:37.692Z,100928.05
2023-02-19T00:15:07.918Z,100920.58
2023-02-19T00:17:36.190Z,100916.20
2023-02-19T00:20:07.125Z,100910.57
2023-02-19T00:22:36.636Z,100906.73
2023-02-19T00:25:05.525Z,100903.59
2023-02-19T00:27:34.207Z,100897.85
2023-02-19T00:30:02.632Z,100892.28
2023-02-19T00:32:32.949Z,100891.27
2023-02-19T00:35:02.423Z,100888.78
2023-02-19T00:37:33.967Z,100884.39
2023-02-19T00:40:02.663Z,100871.62
2023-02-19T00:42:31.240Z,100865.14
2023-02-19T00:45:00.946Z,100862.10
2023-02-19T00:47:29.427Z,100850.36
2023-02-19T00:49:58.135Z,100847.16
2023-02-19T00:52:26.530Z,100854.02
2023-02-19T00:54:57.741Z,100847.68
2023-02-19T00:57:27.137Z,100849.00
2023-02-19T00:59:56.672Z,100852.05
2023-02-19T01:02:27.172Z,100843.83
2023-02-19T01:04:57.862Z,100842.83
2023-02-19T01:07:26.596Z,100842.14
2023-02-19T01:09:54.882Z,100844.75
2023-02-19T01:12:24.569Z,100842.52
2023-02-19T01:14:53.483Z,100844.98
2023-02-19T01:17:23.685Z,100845.55
2023-02-19T01:19:53.287Z,100849.35
2023-02-19T01:22:21.667Z,100851.58
2023-02-19T01:24:50.247Z,100847.41
2023-02-19T01:27:18.837Z,100844.63
2023-02-19T01:29:50.324Z,100842.03
2023-02-19T01:32:18.914Z,100840.31
2023-02-19T01:34:47.340Z,100841.31
2023-02-19T01:37:15.935Z,100843.36
2023-02-19T01:39:44.408Z,100838.43
2023-02-19T01:42:14.735Z,100840.68
2023-02-19T01:44:43.219Z,100843.23
2023-02-19T01:47:12.318Z,100839.56
2023-02-19T01:49:49.187Z,100845.28
2023-02-19T01:52:32.927Z,100841.58
2023-02-19T01:55:02.734Z,100848.84
2023-02-19T01:57:34.296Z,100847.58
2023-02-19T02:00:06.073Z,100840.98
2023-02-19T02:02:43.549Z,100838.58
2023-02-19T02:05:18.579Z,100838.35
2023-02-19T02:08:05.792Z,100849.66
2023-02-19T02:10:34.378Z,100853.31
2023-02-19T02:13:09.202Z,100847.27
2023-02-19T02:16:13.365Z,100843.35
2023-02-19T02:19:24.809Z,100843.11
2023-02-19T02:22:04.553Z,100839.89
2023-02-19T02:24:48.906Z,100839.63
2023-02-19T02:27:55.385Z,100835.93
2023-02-19T02:30:36.458Z,100830.51
2023-02-19T02:33:40.169Z,100832.16
2023-02-19T02:36:13.594Z,100849.02
2023-02-19T02:38:43.166Z,100859.83
2023-02-19T02:41:11.666Z,100868.05
2023-02-19T02:43:41.085Z,100868.70
2023-02-19T02:46:14.040Z,100873.87
2023-02-19T02:48:56.028Z,100870.48
2023-02-19T02:51:31.573Z,100875.19
2023-02-19T02:54:30.775Z,100880.14
2023-02-19T02:57:00.593Z,100871.02
2023-02-19T02:59:33.894Z,100871.46
2023-02-19T03:02:11.133Z,100872.95
2023-02-19T03:05:08.393Z,100878.77
2023-02-19T03:07:40.590Z,100881.30
2023-02-19T03:10:11.202Z,100881.62
2023-02-19T03:12:58.335Z,100882.12
2023-02-19T03:15:52.518Z,100882.27
2023-02-19T03:18:39.738Z,100875.65
2023-02-19T03:21:09.113Z,100876.90
2023-02-19T03:23:59.020Z,100875.38
2023-02-19T03:26:27.643Z,100866.04
2023-02-19T03:29:15.130Z,100862.77
2023-02-19T03:31:46.171Z,100862.42
2023-02-19T03:34:17.411Z,100864.71
2023-02-19T03:36:48.464Z,100868.20
2023-02-19T03:39:18.164Z,100869.31
2023-02-19T03:41:55.759Z,100877.70
2023-02-19T03:44:30.278Z,100882.39
2023-02-19T03:47:10.541Z,100879.83
2023-02-19T03:49:49.565Z,100883.73
2023-02-19T03:52:26.953Z,100886.21
2023-02-19T03:55:08.546Z,100890.27
2023-02-19T03:57:53.513Z,100886.46
2023-02-19T04:00:32.855Z,100887.16
2023-02-19T04:03:21.704Z,100892.90
2023-02-19T04:05:55.923Z,100896.53
2023-02-19T04:08:24.610Z,100899.48
2023-02-19T04:10:58.390Z,100904.00
2023-02-19T04:13:33.198Z,100909.55
2023-02-19T04:16:08.688Z,100915.63
2023-02-19T04:18:43.619Z,100926.25
2023-02-19T04:21:12.369Z,100928.74
2023-02-19T04:23:42.818Z,100938.17
2023-02-19T04:26:11.848Z,100944.61
2023-02-19T04:28:40.608Z,100939.65
2023-02-19T04:31:09.459Z,100954.83
2023-02-19T04:33:38.488Z,100960.10
2023-02-19T04:36:08.069Z,100957.73
2023-02-19T04:38:36.474Z,100962.99
2023-02-19T04:41:06.090Z,100965.13
2023-02-19T04:43:34.559Z,100975.92
2023-02-19T04:46:03.285Z,100989.36
2023-02-19T04:48:33.669Z,100997.95
2023-02-19T04:51:06.857Z,101003.23
2023-02-19T04:53:39.973Z,100989.58
2023-02-19T04:56:12.935Z,100989.27
2023-02-19T04:58:41.674Z,100992.40
2023-02-19T05:01:10.555Z,100999.73
2023-02-19T05:03:39.912Z,101015.55
2023-02-19T05:06:10.346Z,101016.46
2023-02-19T05:08:38.822Z,101015.97
2023-02-19T05:11:08.204Z,101016.33
2023-02-19T05:13:38.660Z,101009.92
2023-02-19T05:16:14.086Z,101017.06
2023-02-19T05:18:43.715Z,101027.33
2023-02-19T05:21:12.992Z,101025.29
2023-02-19T05:23:41.683Z,101020.79
2023-02-19T05:26:18.477Z,101018.02
2023-02-19T05:28:48.272Z,101032.25
2023-02-19T05:31:17.025Z,101030.52
2023-02-19T05:33:48.505Z,101036.41
2023-02-19T05:39:41.585Z,101038.11
2023-02-19T05:42:09.975Z,101039.36
2023-02-19T05:44:39.054Z,101045.25
2023-02-19T05:47:07.739Z,101058.27
2023-02-19T05:49:36.427Z,101059.65
2023-02-19T05:52:05.626Z,101063.27
2023-02-19T05:54:34.243Z,101068.95
2023-02-19T05:57:02.590Z,101067.00
2023-02-19T05:59:31.984Z,101064.03
2023-02-19T06:02:04.466Z,101073.52
2023-02-19T06:04:32.838Z,101082.10
2023-02-19T06:07:02.451Z,101092.11
2023-02-19T06:09:32.670Z,101093.94
2023-02-19T06:12:00.969Z,101090.20
2023-02-19T06:14:30.751Z,101092.13
2023-02-19T06:16:59.333Z,101102.17
2023-02-19T06:19:27.519Z,101105.86
2023-02-19T06:21:55.911Z,101102.25
2023-02-19T06:24:24.266Z,101113.64
2023-02-19T06:26:52.646Z,101128.36
2023-02-19T06:29:21.250Z,101130.63
2023-02-19T06:31:49.623Z,101133.95
2023-02-19T06:34:18.290Z,101131.42
2023-02-19T06:36:49.235Z,101140.42
2023-02-19T06:39:17.613Z,101145.27
2023-02-19T06:41:47.515Z,101142.98
2023-02-19T06:44:16.015Z,101148.69
2023-02-19T06:46:46.989Z,101151.64
2023-02-19T06:49:15.731Z,101154.92
2023-02-19T06:51:44.217Z,101153.42
2023-02-19T06:54:12.897Z,101157.45
2023-02-19T06:56:41.696Z,101164.80
2023-02-19T06:59:17.129Z,101173.71
2023-02-19T07:01:45.829Z,101180.52
2023-02-19T07:04:14.260Z,101179.11
2023-02-19T07:06:42.777Z,101180.14
2023-02-19T07:09:11.562Z,101180.59
2023-02-19T07:11:40.156Z,101189.63
2023-02-19T07:14:09.340Z,101199.94
2023-02-19T07:16:39.612Z,101193.40
2023-02-19T07:19:08.343Z,101206.97
2023-02-19T07:21:38.151Z,101214.23
2023-02-19T07:24:07.158Z,101225.15
2023-02-19T07:26:35.437Z,101231.19
2023-02-19T07:29:04.435Z,101233.48
2023-02-19T07:31:32.868Z,101241.09
2023-02-19T07:34:01.382Z,101241.97
2023-02-19T07:36:29.959Z,101243.95
2023-02-19T07:39:00.385Z,101248.55
2023-02-19T07:41:29.493Z,101257.66
2023-02-19T07:43:59.198Z,101250.45
2023-02-19T07:46:28.184Z,101241.89
2023-02-19T07:49:00.056Z,101237.25
2023-02-19T07:51:30.478Z,101245.20
2023-02-19T07:54:01.823Z,101245.88
2023-02-19T07:56:30.712Z,101245.67
2023-02-19T07:59:00.507Z,101237.52
2023-02-19T08:01:47.654Z,101235.11
2023-02-19T08:04:16.327Z,101231.48
2023-02-19T08:06:45.317Z,101238.80
2023-02-19T08:09:13.912Z,101250.90
2023-02-19T08:12:01.018Z,101249.61
2023-02-19T08:14:30.009Z,101250.39
2023-02-19T08:16:58.357Z,101248.98
2023-02-19T08:19:26.771Z,101249.30
2023-02-19T08:21:55.353Z,101257.21
2023-02-19T08:24:29.157Z,101266.12
2023-02-19T08:26:57.915Z,101272.63
2023-02-19T08:29:26.533Z,101271.54
2023-02-19T08:31:54.747Z,101267.68
2023-02-19T08:34:23.385Z,101258.48
2023-02-19T08:36:52.579Z,101254.17
2023-02-19T08:39:21.411Z,101258.98
2023-02-19T08:41:51.836Z,101267.05
2023-02-19T08:44:20.312Z,101272.20
2023-02-19T08:46:54.283Z,101273.72
2023-02-19T08:49:26.964Z,101279.60
2023-02-19T08:51:55.543Z,101286.02
2023-02-19T08:54:23.918Z,101298.16
2023-02-19T08:56:52.405Z,101306.48
2023-02-19T08:59:20.881Z,101304.34
2023-02-19T09:01:49.871Z,101300.09
2023-02-19T09:04:18.590Z,101297.36
2023-02-19T09:06:47.139Z,101295.43
2023-02-19T09:09:15.624Z,101291.13
2023-02-19T09:11:44.446Z,101279.14
2023-02-19T09:14:12.887Z,101267.77
2023-02-19T09:16:41.268Z,101274.42
2023-02-19T09:19:09.539Z,101277.04
2023-02-19T09:21:37.922Z,101271.34
2023-02-19T09:24:08.559Z,101269.66
2023-02-19T09:26:38.609Z,101271.25
2023-02-19T09:29:07.257Z,101278.63
2023-02-19T09:31:35.647Z,101282.38
2023-02-19T09:34:04.264Z,101285.27
2023-02-19T09:36:33.846Z,101284.97
2023-02-19T09:39:02.410Z,101274.96
2023-02-19T09:41:32.741Z,101268.46
2023-02-19T09:44:02.759Z,101269.06
2023-02-19T09:46:32.409Z,101268.48
2023-02-19T09:49:06.724Z,101261.42
2023-02-19T09:51:36.717Z,101264.37
2023-02-19T09:54:07.120Z,101271.66
2023-02-19T09:56:35.698Z,101269.23
2023-02-19T09:59:04.088Z,101278.73
2023-02-19T10:01:34.305Z,101279.00
2023-02-19T10:04:02.688Z,101279.02
2023-02-19T10:06:32.279Z,101282.02
2023-02-19T10:09:14.706Z,101290.03
2023-02-19T10:11:43.471Z,101281.14
2023-02-19T10:14:22.806Z,101279.48
2023-02-19T10:16:51.082Z,101281.92
2023-02-19T10:19:19.466Z,101283.61
2023-02-19T10:21:48.045Z,101281.83
2023-02-19T10:24:37.503Z,101277.11
2023-02-19T10:27:14.392Z,101260.24
2023-02-19T10:29:47.087Z,101257.51
2023-02-19T10:32:18.914Z,101254.12
2023-02-19T10:34:47.723Z,101251.61
2023-02-19T10:37:18.919Z,101251.67
2023-02-19T10:39:48.165Z,101247.95
2023-02-19T10:42:21.249Z,101238.93
2023-02-19T10:44:55.777Z,101238.58
2023-02-19T10:47:26.028Z,101231.82
2023-02-19T10:49:57.171Z,101214.66
2023-02-19T10:52:30.339Z,101203.96
2023-02-19T10:55:37.457Z,101196.70
2023-02-19T10:58:27.936Z,101197.44
2023-02-19T11:01:19.842Z,101195.26
2023-02-19T11:03:49.873Z,101193.23
2023-02-19T11:06:22.304Z,101189.73
2023-02-19T11:08:51.935Z,101191.91
2023-02-19T11:11:27.484Z,101196.94
2023-02-19T11:13:56.987Z,101201.94
2023-02-19T11:16:25.584Z,101201.79
2023-02-19T11:18:57.354Z,101201.79
2023-02-19T11:21:29.804Z,101208.54
2023-02-19T11:23:58.075Z,101205.45
2023-02-19T11:26:27.485Z,101202.17
2023-02-19T11:29:00.476Z,101199.27
2023-02-19T11:31:32.144Z,101202.30
2023-02-19T11:34:02.245Z,101201.48
2023-02-19T11:36:34.934Z,101201.92
2023-02-19T11:39:20.501Z,101189.52
2023-02-19T11:41:49.046Z,101173.39
2023-02-19T11:44:30.672Z,101167.92
2023-02-19T11:47:17.892Z,101164.34
2023-02-19T11:49:59.173Z,101157.11
2023-02-19T11:52:43.230Z,101160.69
2023-02-19T11:55:18.355Z,101150.56
2023-02-19T11:57:48.684Z,101151.89
2023-02-19T12:00:32.449Z,101149.89
2023-02-19T12:03:11.557Z,101147.98
2023-02-19T12:06:15.967Z,101146.11
2023-02-19T12:09:05.438Z,101147.28
2023-02-19T12:11:43.860Z,101157.54
2023-02-19T12:14:41.117Z,101160.25
2023-02-19T12:17:57.613Z,101164.75
2023-02-19T12:20:47.500Z,101166.55
2023-02-19T12:23:46.695Z,101159.97
2023-02-19T12:26:45.999Z,101155.58
2023-02-19T12:29:41.921Z,101159.20
2023-02-19T12:32:13.575Z,101150.89
2023-02-19T12:35:12.264Z,101146.37
2023-02-19T12:37:49.253Z,101150.30
2023-02-19T12:40:43.749Z,101149.46
2023-02-19T12:43:17.339Z,101154.20
2023-02-19T12:45:52.612Z,101154.61
2023-02-19T12:48:21.157Z,101158.23
2023-02-19T12:50:50.466Z,101159.63
2023-02-19T12:53:32.190Z,101159.63
2023-02-19T12:56:00.944Z,101161.13
2023-02-19T12:58:32.711Z,101160.34
2023-02-19T13:01:01.549Z,101158.14
2023-02-19T13:03:53.966Z,101157.20
2023-02-19T13:06:32.452Z,101163.26
2023-02-19T13:09:31.339Z,101168.45
2023-02-19T13:12:03.609Z,101168.25
2023-02-19T13:15:15.323Z,101160.58
2023-02-19T13:17:55.797Z,101156.20
2023-02-19T13:20:29.879Z,101156.59
2023-02-19T13:23:36.657Z,101155.45
2023-02-19T13:26:19.908Z,101157.00
2023-02-19T13:29:00.750Z,101162.95
2023-02-19T13:31:57.768Z,101162.66
2023-02-19T13:35:03.865Z,101162.61
2023-02-19T13:37:36.334Z,101160.11
2023-02-19T13:40:20.275Z,101153.98
2023-02-19T13:42:55.518Z,101152.35
2023-02-19T13:45:40.685Z,101146.10
2023-02-19T13:48:24.222Z,101145.02
2023-02-19T13:51:23.871Z,101137.73
2023-02-19T13:54:01.627Z,101124.27
2023-02-19T13:56:30.094Z,101113.61
2023-02-19T13:59:21.834Z,101114.67
2023-02-19T14:01:50.457Z,101114.70
2023-02-19T14:05:00.466Z,101114.04
2023-02-19T14:07:32.125Z,101114.63
2023-02-19T14:10:02.141Z,101112.05
2023-02-19T14:12:37.396Z,101114.39
2023-02-19T14:15:37.047Z,101111.10
2023-02-19T14:18:43.367Z,101109.88
2023-02-19T14:21:26.211Z,101112.57
2023-02-19T14:23:56.434Z,101110.09
2023-02-19T14:26:25.596Z,101109.55
2023-02-19T14:28:54.070Z,101108.73
2023-02-19T14:31:40.319Z,101112.79
2023-02-19T14:34:22.593Z,101116.36
2023-02-19T14:36:56.723Z,101111.23
2023-02-19T14:39:26.608Z,101120.02
2023-02-19T14:41:58.465Z,101116.08
2023-02-19T14:44:31.851Z,101115.19
2023-02-19T14:47:12.107Z,101109.91
2023-02-19T14:49:48.896Z,101108.45
2023-02-19T14:52:36.952Z,101115.14
2023-02-19T14:55:10.327Z,101118.90
2023-02-19T14:57:40.577Z,101118.71
2023-02-19T15:00:29.092Z,101120.83
2023-02-19T15:02:59.831Z,101117.77
2023-02-19T15:05:33.516Z,101111.38
2023-02-19T15:08:23.202Z,101112.78
2023-02-19T15:14:22.839Z,101115.11
2023-02-19T15:16:55.083Z,101118.27
2023-02-19T15:19:24.810Z,101113.73
2023-02-19T15:21:55.951Z,101115.13
2023-02-19T15:24:24.435Z,101113.16
2023-02-19T15:26:54.491Z,101112.92
2023-02-19T15:29:24.474Z,101103.94
2023-02-19T15:31:57.802Z,101100.37
2023-02-19T15:34:30.663Z,101096.77
2023-02-19T15:37:04.072Z,101094.48
2023-02-19T15:39:43.891Z,101093.73
2023-02-19T15:42:24.667Z,101088.79
2023-02-19T15:45:01.545Z,101086.13
2023-02-19T15:47:45.997Z,101081.49
2023-02-19T15:50:23.493Z,101082.91
2023-02-19T15:53:04.980Z,101084.71
2023-02-19T15:56:16.171Z,101080.42
2023-02-19T15:58:51.994Z,101079.65
2023-02-19T16:01:27.683Z,101086.13
2023-02-19T16:03:56.252Z,101080.44
2023-02-19T16:06:25.536Z,101076.05
2023-02-19T16:09:05.904Z,101076.68
2023-02-19T16:11:36.674Z,101070.38
2023-02-19T16:14:36.954Z,101069.60
2023-02-19T16:17:12.604Z,101073.51
2023-02-19T16:19:46.829Z,101078.73
2023-02-19T16:22:21.668Z,101078.04
2023-02-19T16:24:51.586Z,101069.23
2023-02-19T16:27:41.578Z,101065.48
2023-02-19T16:30:26.976Z,101065.39
2023-02-19T16:33:36.784Z,101066.78
2023-02-19T16:36:24.195Z,101061.68
2023-02-19T16:39:08.145Z,101063.42
2023-02-19T16:41:40.210Z,101059.94
2023-02-19T16:44:20.785Z,101049.84
2023-02-19T16:46:49.558Z,101047.56
2023-02-19T16:49:17.959Z,101040.11
2023-02-19T16:51:46.697Z,101040.84
2023-02-19T16:54:14.929Z,101042.63
2023-02-19T16:56:44.515Z,101038.19
2023-02-19T16:59:13.096Z,101029.39
2023-02-19T17:01:43.432Z,101031.27
2023-02-19T17:04:12.906Z,101035.42
2023-02-19T17:06:41.391Z,101032.65
2023-02-19T17:09:09.671Z,101032.16
2023-02-19T17:11:40.092Z,101031.66
2023-02-19T17:14:09.602Z,101030.65
2023-02-19T17:16:40.663Z,101029.14
2023-02-19T17:19:13.118Z,101027.56
2023-02-19T17:21:42.001Z,101026.16
2023-02-19T17:24:14.998Z,101025.45
2023-02-19T17:26:43.396Z,101019.78
2023-02-19T17:29:14.276Z,101017.58
2023-02-19T17:31:42.923Z,101011.19
2023-02-19T17:34:11.592Z,101004.88
2023-02-19T17:36:43.237Z,101003.30
2023-02-19T17:39:17.328Z,101002.73
2023-02-19T17:41:45.614Z,101001.86
2023-02-19T17:44:13.887Z,100999.24
2023-02-19T17:46:42.469Z,100995.27
2023-02-19T17:49:11.568Z,100992.16
2023-02-19T17:51:40.494Z,100985.54
2023-02-19T17:54:09.767Z,100981.89
2023-02-19T17:56:43.459Z,100976.52
2023-02-19T17:59:12.048Z,100977.40
2023-02-19T18:01:40.371Z,100967.35
2023-02-19T18:04:08.925Z,100969.27
2023-02-19T18:06:37.487Z,100968.70
2023-02-19T18:09:06.279Z,100964.49
2023-02-19T18:11:37.198Z,100966.92
2023-02-19T18:17:34.075Z,100972.84
2023-02-19T18:20:07.162Z,100974.68
2023-02-19T18:22:35.643Z,100974.00
2023-02-19T18:25:04.021Z,100977.11
2023-02-19T18:27:32.399Z,100975.90
2023-02-19T18:30:01.036Z,100970.74
2023-02-19T18:32:29.564Z,100972.41
2023-02-19T18:34:59.279Z,100973.52
2023-02-19T18:37:28.066Z,100972.86
2023-02-19T18:39:56.543Z,100971.59
2023-02-19T18:42:25.022Z,100973.44
2023-02-19T18:44:54.233Z,100974.48
2023-02-19T18:47:27.312Z,100972.55
2023-02-19T18:49:56.715Z,100973.63
2023-02-19T18:52:25.703Z,100974.71
2023-02-19T18:54:55.428Z,100973.73
2023-02-19T18:57:24.409Z,100970.80
2023-02-19T18:59:54.273Z,100971.19
2023-02-19T19:02:22.642Z,100974.86
2023-02-19T19:04:52.267Z,100980.27
2023-02-19T19:07:20.712Z,100982.73
2023-02-19T19:09:49.163Z,100987.92
2023-02-19T19:12:17.469Z,100987.24
2023-02-19T19:14:46.126Z,100987.20
2023-02-19T19:17:14.813Z,100988.55
2023-02-19T19:19:44.930Z,100994.25
2023-02-19T19:22:13.210Z,100990.91
2023-02-19T19:24:41.690Z,100989.34
2023-02-19T19:27:10.068Z,100992.45
2023-02-19T19:29:38.956Z,100991.02
2023-02-19T19:32:08.712Z,100991.51
2023-02-19T19:34:37.556Z,100987.67
2023-02-19T19:37:06.257Z,100986.79
2023-02-19T19:39:34.597Z,100985.36
2023-02-19T19:42:02.994Z,100986.39
2023-02-19T19:44:33.635Z,100980.45
2023-02-19T19:47:02.023Z,100981.52
2023-02-19T19:49:30.381Z,100979.46
2023-02-19T19:52:01.400Z,100975.50
2023-02-19T19:54:34.612Z,100973.08
2023-02-19T19:57:03.195Z,100973.77
2023-02-19T19:59:31.675Z,100974.81
2023-02-19T20:02:03.021Z,100971.48
2023-02-19T20:04:32.220Z,100965.39
2023-02-19T20:07:00.702Z,100962.58
2023-02-19T20:09:30.830Z,100960.33
2023-02-19T20:11:59.403Z,100961.88
2023-02-19T20:14:27.791Z,100960.13
2023-02-19T20:17:00.664Z,100957.70
2023-02-19T20:19:29.368Z,100952.64
2023-02-19T20:21:57.931Z,100950.91
2023-02-19T20:24:28.865Z,100953.81
2023-02-19T20:26:58.854Z,100955.20
2023-02-19T20:29:30.478Z,100959.17
2023-02-19T20:32:00.375Z,100956.55
2023-02-19T20:34:50.334Z,100958.45
2023-02-19T20:37:19.030Z,100956.90
2023-02-19T20:39:47.904Z,100957.79
2023-02-19T20:42:17.104Z,100961.27
2023-02-19T20:44:45.894Z,100963.02
2023-02-19T20:47:14.172Z,100964.78
2023-02-19T20:49:45.313Z,100956.96
2023-02-19T20:52:15.124Z,100958.20
2023-02-19T20:54:44.637Z,100958.73
2023-02-19T20:57:13.620Z,100955.95
2023-02-19T20:59:44.420Z,100953.52
2023-02-19T21:02:21.846Z,100955.58
2023-02-19T21:04:50.534Z,100950.20
2023-02-19T21:07:20.377Z,100947.42
2023-02-19T21:09:48.839Z,100943.75
2023-02-19T21:12:19.535Z,100944.09
2023-02-19T21:14:49.867Z,100941.66
2023-02-19T21:17:18.262Z,100940.59
2023-02-19T21:19:49.308Z,100945.75
2023-02-19T21:22:18.498Z,100946.79
2023-02-19T21:24:49.847Z,100943.81
2023-02-19T21:27:18.630Z,100936.67
2023-02-19T21:29:47.475Z,100934.55
2023-02-19T21:32:15.906Z,100928.79
2023-02-19T21:34:44.600Z,100936.73
2023-02-19T21:37:12.969Z,100936.02
2023-02-19T21:39:42.970Z,100940.67
2023-02-19T21:42:11.169Z,100942.73
2023-02-19T21:44:41.288Z,100948.25
2023-02-19T21:47:15.897Z,100953.42
2023-02-19T21:49:44.486Z,100988.48
2023-02-19T21:52:12.855Z,101019.56
2023-02-19T21:54:41.682Z,101021.79
2023-02-19T21:57:10.159Z,101024.99
2023-02-19T21:59:39.223Z,101018.43
2023-02-19T22:02:07.699Z,101014.49
2023-02-19T22:04:37.302Z,101019.88
2023-02-19T22:07:06.109Z,101024.88
2023-02-19T22:09:34.311Z,101029.69
2023-02-19T22:12:02.744Z,101028.42
2023-02-19T22:14:31.224Z,101034.92
2023-02-19T22:16:59.705Z,101036.60
2023-02-19T22:19:28.087Z,101044.69
2023-02-19T22:21:56.562Z,101051.73
2023-02-19T22:24:24.853Z,101057.02
2023-02-19T22:26:57.004Z,101062.80
2023-02-19T22:29:25.703Z,101067.05
2023-02-19T22:31:54.666Z,101071.83
2023-02-19T22:34:23.693Z,101077.29
2023-02-19T22:36:58.211Z,101083.44
2023-02-19T22:39:44.837Z,101094.65
2023-02-19T22:42:13.385Z,101096.94
2023-02-19T22:44:45.349Z,101098.18
2023-02-19T22:47:14.445Z,101100.41
2023-02-19T22:49:45.792Z,101106.31
2023-02-19T22:52:14.166Z,101104.08
2023-02-19T22:54:43.506Z,101107.20
2023-02-19T22:57:11.743Z,101113.05
2023-02-19T22:59:40.334Z,101120.84
2023-02-19T23:02:08.806Z,101125.13
2023-02-19T23:04:38.417Z,101132.20
2023-02-19T23:07:07.006Z,101130.30
2023-02-19T23:09:35.482Z,101135.30
2023-02-19T23:12:10.583Z,101144.67
2023-02-19T23:14:40.542Z,101146.17
2023-02-19T23:17:09.120Z,101143.02
2023-02-19T23:19:39.444Z,101142.27
2023-02-19T23:22:08.148Z,101144.03
2023-02-19T23:28:00.613Z,101142.27
2023-02-19T23:30:29.331Z,101147.46
2023-02-19T23:32:57.654Z,101151.09
2023-02-19T23:35:26.131Z,101152.81
2023-02-19T23:37:56.144Z,101156.33
2023-02-19T23:40:25.043Z,101164.53
2023-02-19T23:42:54.948Z,101169.80
2023-02-19T23:45:23.752Z,101177.30
2023-02-19T23:47:52.019Z,101182.39
2023-02-19T23:50:20.389Z,101192.31
2023-02-19T23:52:49.268Z,101202.08
2023-02-19T23:55:18.165Z,101209.60
2023-02-19T23:57:46.452Z,101220.39
